Time;durP1;ratioP1;P1;durP2;ratioP2;P2;SDS_P1;SDS_P2;PMS_P1;PMS_P2;Temp;Humidity;BMP_temperature;BMP_pressure;BME280_temperature;BME280_humidity;BME280_pressure;Samples;Min_cycle;Max_cycle;Signal;HPM_P1;HPM_P2
2023/06/04 00:02:23;;;;;;;3.13;1.52;;;17.90;49.70;;;;;;5116793;28;20035;-74
2023/06/04 00:04:48;;;;;;;2.22;1.30;;;17.90;49.70;;;;;;5116747;28;20448;-74
2023/06/04 00:07:14;;;;;;;2.65;1.30;;;17.90;49.80;;;;;;5116725;28;20028;-74
2023/06/04 00:09:40;;;;;;;3.05;1.42;;;17.90;50.00;;;;;;5115735;28;20451;-74
2023/06/04 00:12:06;;;;;;;3.90;1.67;;;17.90;50.50;;;;;;5116637;28;20028;-74
2023/06/04 00:14:31;;;;;;;1.67;1.10;;;17.90;50.20;;;;;;5115760;28;20023;-74
2023/06/04 00:16:57;;;;;;;3.33;1.58;;;17.80;50.60;;;;;;5115559;28;20483;-74
2023/06/04 00:19:23;;;;;;;2.60;1.33;;;17.80;50.70;;;;;;5116441;28;20135;-74
2023/06/04 00:21:48;;;;;;;1.95;1.33;;;17.80;51.20;;;;;;5115400;28;20059;-74
2023/06/04 00:24:14;;;;;;;2.55;1.48;;;17.80;51.50;;;;;;5115410;28;20028;-74
2023/06/04 00:26:40;;;;;;;4.40;1.38;;;17.70;51.50;;;;;;5116318;28;20096;-74
2023/06/04 00:29:05;;;;;;;2.97;1.30;;;17.70;51.70;;;;;;5098267;28;20036;-74
2023/06/04 00:31:31;;;;;;;2.45;1.35;;;17.60;53.00;;;;;;5116230;28;20088;-74
2023/06/04 00:33:57;;;;;;;3.95;1.33;;;17.60;52.30;;;;;;5115264;28;20033;-75
2023/06/04 00:36:22;;;;;;;2.33;1.38;;;17.50;52.20;;;;;;5116178;28;20028;-74
2023/06/04 00:38:48;;;;;;;3.47;1.30;;;17.50;52.20;;;;;;5115155;28;20054;-74
2023/06/04 00:41:13;;;;;;;1.48;1.13;;;17.50;52.10;;;;;;5115137;28;20088;-74
2023/06/04 00:43:39;;;;;;;2.65;1.20;;;17.50;52.40;;;;;;5115030;28;20042;-74
2023/06/04 00:46:06;;;;;;;2.60;1.45;;;17.50;52.50;;;;;;5115022;28;20087;-75
2023/06/04 00:48:32;;;;;;;2.63;1.40;;;17.50;52.80;;;;;;5115781;28;20051;-74
2023/06/04 00:50:58;;;;;;;2.95;1.60;;;17.40;52.90;;;;;;5115051;28;20087;-74
2023/06/04 00:53:25;;;;;;;3.10;1.67;;;17.40;53.00;;;;;;5115811;28;20028;-74
2023/06/04 00:55:51;;;;;;;2.75;1.25;;;17.40;53.30;;;;;;5115757;28;20016;-74
2023/06/04 00:58:17;;;;;;;2.40;1.60;;;17.40;53.50;;;;;;5115727;28;20020;-74
2023/06/04 01:00:44;;;;;;;3.15;1.60;;;17.40;53.50;;;;;;5115849;28;20119;-74
2023/06/04 01:03:22;;;;;;;2.45;1.63;;;17.40;53.60;;;;;;5114649;28;20031;-74
2023/06/04 01:05:51;;;;;;;3.67;1.58;;;17.30;53.80;;;;;;5115605;28;20110;-74
2023/06/04 01:08:18;;;;;;;7.88;1.60;;;17.30;53.90;;;;;;5115507;28;20074;-74
2023/06/04 01:10:56;;;;;;;5.03;1.48;;;17.20;54.00;;;;;;5115526;28;20560;-74
2023/06/04 01:13:22;;;;;;;4.10;2.05;;;17.20;54.40;;;;;;5115395;28;20076;-74
2023/06/04 01:15:48;;;;;;;5.10;1.80;;;17.20;54.60;;;;;;5114355;28;20101;-74
2023/06/04 01:18:27;;;;;;;2.10;1.15;;;17.20;54.60;;;;;;5114455;28;20050;-74
2023/06/04 01:21:07;;;;;;;2.70;1.50;;;17.20;54.70;;;;;;5115147;28;20044;-74
2023/06/04 01:23:58;;;;;;;3.85;1.58;;;17.10;54.70;;;;;;5115448;28;20455;-74
2023/06/04 01:26:26;;;;;;;1.75;1.30;;;17.10;55.00;;;;;;5114287;28;20047;-74
2023/06/04 01:28:53;;;;;;;2.95;1.60;;;17.10;55.10;;;;;;5115061;28;20072;-74
2023/06/04 01:31:22;;;;;;;2.13;1.63;;;17.10;55.20;;;;;;5114105;28;20043;-74
2023/06/04 01:33:53;;;;;;;3.72;1.35;;;17.00;55.60;;;;;;5114936;28;20035;-74
2023/06/04 01:36:19;;;;;;;2.75;1.60;;;17.00;56.00;;;;;;5114973;28;20024;-74
2023/06/04 01:38:45;;;;;;;1.70;1.38;;;17.00;56.10;;;;;;5114957;28;20080;-74
2023/06/04 01:41:10;;;;;;;3.05;1.40;;;16.90;56.30;;;;;;5113983;28;20028;-74
2023/06/04 01:43:36;;;;;;;2.28;1.48;;;16.90;56.80;;;;;;5114822;28;20088;-74
2023/06/04 01:46:03;;;;;;;3.45;1.60;;;16.80;56.70;;;;;;5114902;28;20029;-74
2023/06/04 01:48:29;;;;;;;3.45;1.63;;;16.80;57.00;;;;;;5114658;28;20024;-74
2023/06/04 01:50:55;;;;;;;2.90;1.60;;;16.80;56.70;;;;;;5114702;28;20035;-74
2023/06/04 01:53:20;;;;;;;2.58;1.40;;;16.80;56.60;;;;;;5114645;28;20028;-74
2023/06/04 01:55:48;;;;;;;3.33;1.50;;;16.80;57.10;;;;;;5113609;28;20020;-74
2023/06/04 01:58:22;;;;;;;3.10;1.42;;;16.70;57.30;;;;;;5114100;28;20031;-74
2023/06/04 02:00:52;;;;;;;2.28;1.55;;;16.70;57.70;;;;;;5114656;28;20024;-75
2023/06/04 02:03:18;;;;;;;2.88;1.50;;;16.70;57.60;;;;;;5114656;28;20024;-74
2023/06/04 02:05:46;;;;;;;3.03;1.52;;;16.60;57.60;;;;;;5113414;28;20030;-74
2023/06/04 02:08:18;;;;;;;3.20;1.73;;;16.60;57.70;;;;;;5114263;28;20030;-74
2023/06/04 02:10:47;;;;;;;;;;;16.60;57.90;;;;;;5114795;28;20041;-74
2023/06/04 02:13:13;;;;;;;3.20;1.50;;;16.60;57.50;;;;;;5114297;28;19904;-74
2023/06/04 02:15:39;;;;;;;2.60;1.67;;;16.50;57.90;;;;;;5114267;28;20035;-74
2023/06/04 02:18:16;;;;;;;2.33;1.48;;;16.50;57.70;;;;;;5114198;28;20024;-74
2023/06/04 02:20:44;;;;;;;2.53;1.63;;;16.50;57.70;;;;;;5113885;28;20095;-74
2023/06/04 02:23:10;;;;;;;1.95;1.52;;;16.40;58.40;;;;;;5113090;28;20028;-74
2023/06/04 02:25:35;;;;;;;4.28;1.80;;;16.40;58.90;;;;;;5113159;28;20033;-74
2023/06/04 02:28:01;;;;;;;3.00;1.77;;;16.40;58.80;;;;;;5112952;28;20032;-74
2023/06/04 02:30:27;;;;;;;4.15;1.80;;;16.30;58.90;;;;;;5114010;28;20035;-74
2023/06/04 02:32:54;;;;;;;2.30;1.33;;;16.30;59.40;;;;;;5114027;28;20079;-74
2023/06/04 02:35:22;;;;;;;2.47;1.30;;;16.30;59.60;;;;;;5113851;28;20079;-74
2023/06/04 02:37:48;;;;;;;3.83;1.48;;;16.30;59.50;;;;;;5113983;28;20020;-74
2023/06/04 02:40:14;;;;;;;3.58;1.70;;;16.30;59.60;;;;;;5113827;28;20039;-74
2023/06/04 02:42:40;;;;;;;6.50;1.70;;;16.30;59.60;;;;;;5113780;28;20055;-74
2023/06/04 02:45:06;;;;;;;4.63;1.98;;;16.30;59.50;;;;;;5113936;28;20079;-74
2023/06/04 02:47:31;;;;;;;2.38;1.35;;;16.20;59.30;;;;;;5113758;28;20112;-73
2023/06/04 02:49:57;;;;;;;3.03;1.63;;;16.20;59.40;;;;;;5113648;28;20102;-74
2023/06/04 02:52:25;;;;;;;2.88;1.65;;;16.20;59.80;;;;;;5113712;28;20038;-74
2023/06/04 02:54:51;;;;;;;2.33;1.52;;;16.10;59.80;;;;;;5113682;28;20474;-74
2023/06/04 02:57:16;;;;;;;1.80;1.30;;;16.10;60.10;;;;;;5113750;28;20027;-73
2023/06/04 02:59:42;;;;;;;2.88;1.90;;;16.10;60.20;;;;;;5112737;28;20028;-74
2023/06/04 03:02:07;;;;;;;2.63;1.42;;;16.10;60.30;;;;;;5112651;28;20032;-74
2023/06/04 03:04:36;;;;;;;3.67;1.50;;;16.00;60.10;;;;;;5113548;28;20052;-74
2023/06/04 03:07:02;;;;;;;3.20;1.58;;;16.00;59.80;;;;;;5113548;28;20024;-74
2023/06/04 03:09:30;;;;;;;2.63;1.48;;;16.00;59.70;;;;;;5113424;28;20026;-74
2023/06/04 03:12:00;;;;;;;3.55;1.88;;;15.90;59.50;;;;;;5116430;28;20023;-74
2023/06/04 03:14:31;;;;;;;3.80;1.98;;;15.90;59.70;;;;;;5117757;28;20012;-75
2023/06/04 03:17:00;;;;;;;4.72;2.03;;;15.90;59.50;;;;;;5117735;28;20023;-74
2023/06/04 03:19:27;;;;;;;2.17;1.65;;;15.90;59.80;;;;;;5117606;28;20024;-74
2023/06/04 03:21:53;;;;;;;3.17;1.83;;;15.90;60.10;;;;;;5116473;28;20414;-74
2023/06/04 03:24:19;;;;;;;3.00;1.50;;;15.80;60.60;;;;;;5117659;28;20032;-74
2023/06/04 03:26:45;;;;;;;2.33;1.60;;;15.70;60.70;;;;;;5117480;28;20024;-74
2023/06/04 03:29:11;;;;;;;2.42;1.85;;;15.70;61.20;;;;;;5117389;28;20096;-74
2023/06/04 03:31:37;;;;;;;3.90;1.83;;;15.60;61.10;;;;;;5117407;28;20020;-74
2023/06/04 03:34:03;;;;;;;3.58;1.45;;;15.60;60.70;;;;;;5116351;28;20024;-74
2023/06/04 03:36:31;;;;;;;3.33;1.75;;;15.60;60.70;;;;;;5117319;28;20024;-74
2023/06/04 03:38:57;;;;;;;3.88;1.75;;;15.60;60.50;;;;;;5117270;28;20050;-74
2023/06/04 03:41:23;;;;;;;6.45;1.80;;;15.60;60.40;;;;;;5116451;28;20035;-73
2023/06/04 03:43:48;;;;;;;2.83;1.92;;;15.60;60.80;;;;;;5117179;28;20028;-74
2023/06/04 03:46:14;;;;;;;3.10;1.90;;;15.60;61.10;;;;;;5099137;28;20043;-74
2023/06/04 03:48:41;;;;;;;2.85;1.67;;;15.50;60.90;;;;;;5115966;28;20100;-74
2023/06/04 03:51:07;;;;;;;3.40;1.90;;;15.50;60.70;;;;;;5117042;28;20021;-74
2023/06/04 03:53:32;;;;;;;3.50;1.58;;;15.50;60.60;;;;;;5117010;28;20394;-74
2023/06/04 03:55:58;;;;;;;2.55;1.77;;;15.50;60.50;;;;;;5116975;28;20066;-74
2023/06/04 03:58:24;;;;;;;1.88;1.33;;;15.50;60.60;;;;;;5116883;28;20032;-74
2023/06/04 04:00:49;;;;;;;2.90;1.52;;;15.50;61.00;;;;;;5115962;28;20089;-74
2023/06/04 04:03:15;;;;;;;4.28;1.50;;;15.50;61.00;;;;;;5116781;28;20028;-74
2023/06/04 04:05:40;;;;;;;3.45;1.70;;;15.50;60.70;;;;;;5116733;28;20058;-74
2023/06/04 04:08:08;;;;;;;4.95;1.80;;;15.50;60.70;;;;;;5116785;28;20028;-74
2023/06/04 04:10:35;;;;;;;2.03;1.60;;;15.50;60.80;;;;;;5116657;28;20141;-74
2023/06/04 04:13:00;;;;;;;4.63;1.73;;;15.40;61.10;;;;;;5116787;28;20033;-74
2023/06/04 04:15:26;;;;;;;3.55;1.85;;;15.40;62.00;;;;;;5116548;28;20031;-74
2023/06/04 04:17:52;;;;;;;4.70;1.80;;;15.40;62.00;;;;;;5115563;28;20070;-74
2023/06/04 04:20:18;;;;;;;2.83;1.80;;;15.40;61.60;;;;;;5116207;28;20052;-74
2023/06/04 04:22:44;;;;;;;4.18;1.70;;;15.40;61.70;;;;;;5116043;28;20020;-74
2023/06/04 04:25:09;;;;;;;4.10;1.70;;;15.40;62.00;;;;;;5115454;28;20426;-74
2023/06/04 04:27:38;;;;;;;3.95;1.90;;;15.40;62.20;;;;;;5116294;28;20028;-74
2023/06/04 04:30:05;;;;;;;4.85;1.70;;;15.40;62.50;;;;;;5116252;28;20514;-74
2023/06/04 04:32:31;;;;;;;4.03;1.60;;;15.40;62.70;;;;;;5115278;28;20028;-74
2023/06/04 04:34:58;;;;;;;2.80;1.75;;;15.40;62.90;;;;;;5115310;28;20050;-74
2023/06/04 04:37:24;;;;;;;3.92;1.60;;;15.40;62.80;;;;;;5115312;28;20088;-73
2023/06/04 04:39:51;;;;;;;2.70;1.77;;;15.40;62.90;;;;;;5115246;28;20474;-74
2023/06/04 04:42:18;;;;;;;2.50;1.60;;;15.40;63.00;;;;;;5116074;28;20054;-74
2023/06/04 04:44:47;;;;;;;4.22;1.90;;;15.40;63.10;;;;;;5116031;28;20054;-74
2023/06/04 04:47:13;;;;;;;4.15;1.88;;;15.40;63.40;;;;;;5115952;28;20029;-74
2023/06/04 04:49:39;;;;;;;4.00;1.80;;;15.40;63.50;;;;;;5115845;28;20028;-75
2023/06/04 04:52:04;;;;;;;3.38;1.92;;;15.40;63.50;;;;;;5114936;28;20391;-75
2023/06/04 04:54:30;;;;;;;3.20;1.70;;;15.50;63.80;;;;;;5114891;28;20046;-74
2023/06/04 04:56:56;;;;;;;3.47;1.88;;;15.50;63.90;;;;;;5114828;28;20035;-74
2023/06/04 04:59:21;;;;;;;4.22;2.10;;;15.50;63.90;;;;;;5114694;28;20028;-74
2023/06/04 05:01:47;;;;;;;3.58;1.67;;;15.50;63.90;;;;;;5115681;28;20031;-74
2023/06/04 05:04:12;;;;;;;4.70;1.58;;;15.50;63.60;;;;;;5115629;28;20067;-74
2023/06/04 05:06:38;;;;;;;3.40;1.90;;;15.50;63.80;;;;;;5115580;28;20024;-74
2023/06/04 05:09:03;;;;;;;3.55;1.80;;;15.50;63.50;;;;;;5115463;28;20054;-75
2023/06/04 05:11:29;;;;;;;2.95;1.70;;;15.50;63.80;;;;;;5115508;28;20024;-74
2023/06/04 05:13:55;;;;;;;3.10;1.58;;;15.50;63.70;;;;;;5115397;28;20032;-74
2023/06/04 05:16:22;;;;;;;3.58;1.85;;;15.50;63.90;;;;;;5114366;28;20024;-74
2023/06/04 05:18:51;;;;;;;6.22;2.10;;;15.50;63.90;;;;;;5115337;28;20052;-75
2023/06/04 05:21:17;;;;;;;4.43;2.05;;;15.50;63.60;;;;;;5115132;28;20048;-74
2023/06/04 05:23:45;;;;;;;6.47;2.03;;;15.50;63.70;;;;;;5097413;28;20045;-75
2023/06/04 05:26:10;;;;;;;5.80;2.05;;;15.60;63.80;;;;;;5114188;28;20092;-74
2023/06/04 05:28:36;;;;;;;2.63;1.58;;;15.60;63.90;;;;;;5115085;28;20360;-74
2023/06/04 05:31:02;;;;;;;2.78;1.98;;;15.50;63.90;;;;;;5115129;28;20440;-74
2023/06/04 05:33:30;;;;;;;2.88;1.75;;;15.60;64.00;;;;;;5114262;28;20028;-75
2023/06/04 05:35:57;;;;;;;3.92;2.08;;;15.60;64.00;;;;;;5115014;28;20020;-74
2023/06/04 05:38:26;;;;;;;4.30;1.95;;;15.60;64.10;;;;;;5114987;28;20024;-74
2023/06/04 05:40:55;;;;;;;2.70;1.80;;;15.70;64.10;;;;;;5114899;28;20050;-74
2023/06/04 05:43:21;;;;;;;4.10;2.15;;;15.70;64.20;;;;;;5114136;28;20027;-74
2023/06/04 05:45:47;;;;;;;6.80;2.53;;;15.80;64.20;;;;;;5114989;28;20107;-74
2023/06/04 05:48:13;;;;;;;4.47;2.10;;;15.80;64.00;;;;;;5113804;28;20036;-74
2023/06/04 05:50:38;;;;;;;4.93;2.10;;;15.80;64.10;;;;;;5114822;28;20084;-74
2023/06/04 05:53:04;;;;;;;3.58;1.98;;;15.90;65.00;;;;;;5114604;28;20032;-74
2023/06/04 05:55:30;;;;;;;4.70;2.05;;;15.90;64.10;;;;;;5114613;28;20032;-74
2023/06/04 05:57:56;;;;;;;2.67;1.77;;;15.90;64.50;;;;;;5114530;28;20038;-73
2023/06/04 06:00:22;;;;;;;2.95;1.90;;;15.90;64.70;;;;;;5113708;28;20028;-74
2023/06/04 06:02:49;;;;;;;4.47;2.28;;;16.00;64.40;;;;;;5113578;28;20035;-74
2023/06/04 06:05:16;;;;;;;6.70;2.05;;;16.00;64.10;;;;;;5114454;28;20092;-74
2023/06/04 06:07:41;;;;;;;4.78;2.10;;;16.00;64.20;;;;;;5114395;28;20058;-74
2023/06/04 06:10:08;;;;;;;3.65;2.05;;;16.10;64.20;;;;;;5113239;28;20032;-74
2023/06/04 06:12:33;;;;;;;3.00;1.90;;;16.10;64.10;;;;;;5096620;28;20030;-75
2023/06/04 06:14:59;;;;;;;4.30;1.83;;;16.20;64.00;;;;;;5114263;28;20447;-75
2023/06/04 06:17:25;;;;;;;3.78;2.13;;;16.20;64.00;;;;;;5114231;28;20039;-74
2023/06/04 06:19:55;;;;;;;4.68;2.20;;;16.20;63.90;;;;;;5114181;28;20103;-74
2023/06/04 06:22:22;;;;;;;3.40;1.98;;;16.30;63.60;;;;;;5114068;28;20055;-74
2023/06/04 06:24:48;;;;;;;3.92;2.20;;;16.40;63.60;;;;;;5114085;28;20035;-74
2023/06/04 06:27:15;;;;;;;4.15;1.85;;;16.40;63.00;;;;;;5114069;28;20031;-74
2023/06/04 06:29:41;;;;;;;5.65;2.20;;;16.40;62.90;;;;;;5113953;28;20023;-74
2023/06/04 06:32:07;;;;;;;2.90;1.90;;;16.40;62.50;;;;;;5113974;28;20043;-74
2023/06/04 06:34:33;;;;;;;3.20;2.10;;;16.40;62.50;;;;;;5112905;28;20031;-74
2023/06/04 06:36:59;;;;;;;2.88;2.15;;;16.50;62.80;;;;;;5113913;28;20024;-74
2023/06/04 06:39:24;;;;;;;3.17;2.00;;;16.50;62.50;;;;;;5113858;28;20054;-73
2023/06/04 06:41:50;;;;;;;3.20;2.10;;;16.60;62.70;;;;;;5112863;28;20041;-74
2023/06/04 06:44:15;;;;;;;2.65;2.03;;;16.70;62.70;;;;;;5113657;28;20028;-74
2023/06/04 06:46:41;;;;;;;5.18;2.10;;;16.70;62.40;;;;;;5113777;28;20044;-74
2023/06/04 06:49:07;;;;;;;4.03;2.17;;;16.70;62.00;;;;;;5112738;28;20107;-74
2023/06/04 06:51:32;;;;;;;5.95;2.63;;;16.80;62.10;;;;;;5112764;28;20016;-74
2023/06/04 06:53:58;;;;;;;3.78;2.13;;;16.80;62.50;;;;;;5113656;28;20032;-74
2023/06/04 06:56:24;;;;;;;3.97;2.15;;;16.90;62.20;;;;;;5113608;28;20039;-74
2023/06/04 06:58:51;;;;;;;5.95;2.50;;;17.00;62.10;;;;;;5112622;28;20028;-74
2023/06/04 07:01:17;;;;;;;3.35;1.77;;;17.00;62.10;;;;;;5113593;28;20087;-74
2023/06/04 07:03:42;;;;;;;3.47;2.17;;;17.10;61.70;;;;;;5113611;28;20028;-75
2023/06/04 07:06:08;;;;;;;2.88;1.88;;;17.10;61.50;;;;;;5113527;28;20028;-75
2023/06/04 07:08:35;;;;;;;2.90;1.83;;;17.10;61.10;;;;;;5113276;28;20025;-75
2023/06/04 07:11:02;;;;;;;3.95;2.00;;;17.20;61.40;;;;;;5113501;28;20021;-75
2023/06/04 07:13:28;;;;;;;4.15;2.00;;;17.20;61.30;;;;;;5113474;28;20050;-75
2023/06/04 07:15:54;;;;;;;4.35;1.90;;;17.30;60.90;;;;;;5113438;28;20024;-74
2023/06/04 07:18:19;;;;;;;7.65;2.80;;;17.30;60.00;;;;;;5113396;28;20028;-74
2023/06/04 07:20:45;;;;;;;3.33;2.03;;;17.40;60.10;;;;;;5112339;28;20044;-74
2023/06/04 07:23:11;;;;;;;4.25;2.13;;;17.50;58.90;;;;;;5112364;28;20044;-74
2023/06/04 07:25:36;;;;;;;3.38;2.00;;;17.50;60.00;;;;;;5112251;28;20032;-74
2023/06/04 07:28:03;;;;;;;3.67;1.90;;;17.50;60.00;;;;;;5113242;28;20081;-74
2023/06/04 07:30:33;;;;;;;2.78;1.55;;;17.60;59.60;;;;;;5113307;28;20012;-75
2023/06/04 07:32:59;;;;;;;3.28;1.90;;;17.70;59.40;;;;;;5112336;28;20012;-74
2023/06/04 07:35:25;;;;;;;3.22;2.20;;;17.80;59.30;;;;;;5112244;28;20073;-75
2023/06/04 07:37:50;;;;;;;3.00;1.77;;;17.80;58.80;;;;;;5113248;28;20016;-75
2023/06/04 07:40:17;;;;;;;3.20;2.00;;;17.90;58.60;;;;;;5113183;28;20400;-75
2023/06/04 07:42:43;;;;;;;5.68;1.88;;;18.00;58.60;;;;;;5112143;28;20024;-75
2023/06/04 07:45:09;;;;;;;3.28;1.70;;;18.10;58.40;;;;;;5113160;28;20071;-75
2023/06/04 07:47:36;;;;;;;1.98;1.58;;;18.20;58.30;;;;;;5113136;28;20115;-75
2023/06/04 07:50:03;;;;;;;3.00;1.73;;;18.20;58.50;;;;;;5113019;28;20025;-75
2023/06/04 07:52:28;;;;;;;4.88;1.80;;;18.30;58.50;;;;;;5113022;28;20028;-75
2023/06/04 07:54:54;;;;;;;3.90;1.63;;;18.40;58.10;;;;;;5113064;28;20058;-75
2023/06/04 07:57:20;;;;;;;2.28;1.70;;;18.50;57.80;;;;;;5114762;28;20027;-74
2023/06/04 07:59:45;;;;;;;2.70;1.40;;;18.60;58.10;;;;;;5116901;28;20083;-75
2023/06/04 08:02:11;;;;;;;3.63;1.70;;;18.60;57.90;;;;;;5115992;28;20054;-75
2023/06/04 08:04:36;;;;;;;4.90;1.95;;;18.70;57.80;;;;;;5115935;28;20040;-75
2023/06/04 08:07:02;;;;;;;4.22;1.88;;;18.80;57.30;;;;;;5116801;28;20028;-75
2023/06/04 08:09:28;;;;;;;3.97;1.63;;;18.80;57.00;;;;;;5116676;28;20032;-75
2023/06/04 08:11:53;;;;;;;2.30;1.80;;;18.90;57.40;;;;;;5115707;28;20095;-75
2023/06/04 08:14:21;;;;;;;3.35;1.67;;;19.00;58.70;;;;;;5098661;28;20028;-75
2023/06/04 08:16:47;;;;;;;3.72;1.50;;;19.00;57.60;;;;;;5116597;28;20024;-75
2023/06/04 08:19:13;;;;;;;3.13;1.52;;;19.10;56.70;;;;;;5116547;28;20043;-75
2023/06/04 08:21:40;;;;;;;4.45;1.70;;;19.20;56.40;;;;;;5116132;28;20058;-75
2023/06/04 08:24:06;;;;;;;3.13;1.80;;;19.30;55.40;;;;;;5116418;28;20046;-75
2023/06/04 08:26:32;;;;;;;7.28;2.00;;;19.30;55.50;;;;;;5116406;28;20047;-75
2023/06/04 08:29:02;;;;;;;2.30;1.50;;;19.30;55.50;;;;;;5115335;28;20044;-75
2023/06/04 08:31:27;;;;;;;3.65;1.58;;;19.40;54.80;;;;;;5116267;28;20012;-75
2023/06/04 08:33:53;;;;;;;3.22;1.42;;;19.40;54.90;;;;;;5116149;28;20030;-75
2023/06/04 08:36:18;;;;;;;3.00;1.35;;;19.50;55.10;;;;;;5115249;28;20051;-75
2023/06/04 08:38:44;;;;;;;4.32;1.40;;;19.50;55.00;;;;;;5116155;28;20127;-75
2023/06/04 08:41:15;;;;;;;2.33;1.23;;;19.60;53.60;;;;;;5115088;28;20095;-75
2023/06/04 08:43:45;;;;;;;3.05;1.40;;;19.70;54.60;;;;;;5116136;28;20088;-75
2023/06/04 08:46:11;;;;;;;3.78;1.40;;;19.80;54.50;;;;;;5115995;28;20027;-75
2023/06/04 08:48:38;;;;;;;2.72;1.55;;;19.90;53.70;;;;;;5115874;28;20034;-75
2023/06/04 08:51:08;;;;;;;3.90;1.52;;;19.90;53.20;;;;;;5114911;28;20012;-75
2023/06/04 08:53:34;;;;;;;4.10;1.80;;;19.90;53.70;;;;;;5115923;28;20071;-75
2023/06/04 08:56:00;;;;;;;2.92;1.50;;;20.00;53.50;;;;;;5115823;28;20088;-75
2023/06/04 08:58:32;;;;;;;2.47;1.40;;;20.10;53.60;;;;;;5115694;28;20042;-76
2023/06/04 09:00:57;;;;;;;2.03;1.10;;;20.20;53.60;;;;;;5115760;28;20024;-76
2023/06/04 09:03:25;;;;;;;3.08;1.30;;;20.20;51.70;;;;;;5115725;28;20063;-76
2023/06/04 09:05:51;;;;;;;2.63;1.50;;;20.30;50.90;;;;;;5115589;28;20024;-76
2023/06/04 09:08:19;;;;;;;3.10;1.33;;;20.30;51.90;;;;;;5114228;28;20028;-76
2023/06/04 09:10:49;;;;;;;2.70;1.48;;;20.40;51.90;;;;;;5114580;28;20151;-76
2023/06/04 09:13:15;;;;;;;2.50;1.30;;;20.50;50.80;;;;;;5114609;28;20028;-76
2023/06/04 09:15:41;;;;;;;2.33;1.17;;;20.60;50.90;;;;;;5114401;28;20040;-76
2023/06/04 09:18:07;;;;;;;1.88;1.00;;;20.70;51.50;;;;;;5097496;28;20066;-76
2023/06/04 09:20:32;;;;;;;2.60;0.93;;;20.80;49.80;;;;;;5115330;28;20013;-76
2023/06/04 09:22:58;;;;;;;1.52;0.95;;;20.90;47.30;;;;;;5097227;28;20500;-76
2023/06/04 09:25:25;;;;;;;2.30;1.20;;;20.90;46.50;;;;;;5114234;28;20024;-75
2023/06/04 09:27:52;;;;;;;2.28;1.00;;;21.00;45.80;;;;;;5115337;28;20030;-75
2023/06/04 09:30:19;;;;;;;3.58;1.08;;;21.00;42.00;;;;;;5114995;28;20028;-75
2023/06/04 09:32:44;;;;;;;4.32;0.93;;;21.00;42.00;;;;;;5114217;28;20020;-75
2023/06/04 09:35:18;;;;;;;1.38;0.90;;;21.10;44.60;;;;;;5114985;28;20032;-75
2023/06/04 09:37:56;;;;;;;2.38;0.88;;;21.20;44.90;;;;;;5097230;28;20024;-75
2023/06/04 09:40:22;;;;;;;1.77;0.90;;;21.30;41.90;;;;;;5113488;28;20028;-75
2023/06/04 09:42:54;;;;;;;2.38;1.10;;;21.40;43.30;;;;;;5114896;28;20029;-75
2023/06/04 09:45:34;;;;;;;3.30;1.10;;;21.40;42.30;;;;;;5114893;28;20032;-75
2023/06/04 09:48:00;;;;;;;2.50;1.00;;;21.40;42.30;;;;;;5114817;28;20032;-75
2023/06/04 09:50:28;;;;;;;3.78;1.10;;;21.50;42.90;;;;;;5114696;28;20025;-75
2023/06/04 09:52:54;;;;;;;2.60;1.15;;;21.60;43.90;;;;;;5114723;28;20016;-75
2023/06/04 09:55:21;;;;;;;2.92;1.13;;;21.60;41.60;;;;;;5113755;28;20375;-75
2023/06/04 09:57:48;;;;;;;2.08;0.98;;;21.60;41.50;;;;;;5114609;28;20016;-75
2023/06/04 10:00:17;;;;;;;2.75;1.20;;;21.70;42.40;;;;;;5096848;28;20115;-75
2023/06/04 10:02:47;;;;;;;2.03;0.88;;;21.80;43.00;;;;;;5114524;28;20032;-75
2023/06/04 10:05:14;;;;;;;2.00;1.00;;;21.90;41.60;;;;;;5113762;28;20360;-75
2023/06/04 10:07:43;;;;;;;1.75;0.93;;;22.00;41.50;;;;;;5114459;28;20027;-75
2023/06/04 10:10:19;;;;;;;1.67;0.90;;;22.10;41.30;;;;;;5114368;28;20040;-75
2023/06/04 10:12:54;;;;;;;1.48;1.02;;;22.10;39.10;;;;;;5113355;28;20031;-76
2023/06/04 10:15:20;;;;;;;1.50;0.88;;;22.20;40.10;;;;;;5114372;28;20019;-76
2023/06/04 10:17:48;;;;;;;2.05;0.80;;;22.30;38.60;;;;;;5114429;28;20080;-75
2023/06/04 10:20:14;;;;;;;1.05;0.70;;;22.30;38.00;;;;;;5112901;28;20420;-76
2023/06/04 10:22:40;;;;;;;0.98;0.70;;;22.30;35.00;;;;;;5113163;28;20059;-76
2023/06/04 10:25:08;;;;;;;2.25;1.05;;;22.40;37.20;;;;;;5113173;28;20359;-75
2023/06/04 10:27:37;;;;;;;1.70;1.10;;;22.50;38.20;;;;;;5114109;28;20090;-76
2023/06/04 10:30:04;;;;;;;1.83;0.82;;;22.60;38.40;;;;;;5114126;28;20028;-76
2023/06/04 10:32:30;;;;;;;2.20;2.00;;;22.60;37.70;;;;;;5113036;28;20055;-75
2023/06/04 10:35:00;;;;;;;2.20;0.85;;;22.60;36.50;;;;;;5113863;28;20020;-75
2023/06/04 10:37:29;;;;;;;2.55;0.90;;;22.60;37.10;;;;;;5113130;28;20424;-76
2023/06/04 10:39:58;;;;;;;2.75;1.02;;;22.70;38.30;;;;;;5113033;28;20020;-76
2023/06/04 10:42:25;;;;;;;2.38;0.90;;;22.70;38.30;;;;;;5113936;28;20032;-76
2023/06/04 10:44:54;;;;;;;1.85;1.00;;;22.80;36.70;;;;;;5113845;28;20040;-76
2023/06/04 10:47:29;;;;;;;1.85;0.90;;;22.80;37.30;;;;;;5113794;28;20443;-76
2023/06/04 10:49:55;;;;;;;0.98;0.80;;;22.80;36.60;;;;;;5112813;28;20029;-76
2023/06/04 10:52:23;;;;;;;1.30;0.98;;;22.90;37.90;;;;;;5113780;28;20044;-76
2023/06/04 10:54:51;;;;;;;1.58;1.00;;;22.90;34.40;;;;;;5113715;28;20028;-76
2023/06/04 10:57:17;;;;;;;2.00;1.10;;;22.90;34.40;;;;;;5113675;28;20016;-76
2023/06/04 11:00:09;;;;;;;2.63;0.75;;;22.90;34.30;;;;;;5112585;28;20054;-76
2023/06/04 11:02:35;;;;;;;2.80;1.00;;;22.90;35.80;;;;;;5113871;28;20457;-76
2023/06/04 11:05:07;;;;;;;1.05;0.90;;;23.00;36.00;;;;;;5113581;28;20024;-76
2023/06/04 11:07:43;;;;;;;1.73;1.02;;;23.10;35.30;;;;;;5112588;28;20028;-76
2023/06/04 11:10:11;;;;;;;2.45;1.08;;;23.10;34.90;;;;;;5113443;28;20031;-76
2023/06/04 11:12:47;;;;;;;2.55;1.00;;;23.20;34.30;;;;;;5112494;28;20032;-76
2023/06/04 11:15:14;;;;;;;1.52;1.00;;;23.20;34.40;;;;;;5113535;28;20028;-76
2023/06/04 11:17:53;;;;;;;1.65;0.80;;;23.20;35.20;;;;;;5112426;28;20386;-76
2023/06/04 11:20:20;;;;;;;1.60;0.90;;;23.30;36.10;;;;;;5112638;28;20035;-76
2023/06/04 11:22:55;;;;;;;1.85;1.00;;;23.30;34.80;;;;;;5113063;28;20115;-76
2023/06/04 11:25:22;;;;;;;1.13;0.90;;;23.30;35.20;;;;;;5112359;28;20024;-76
2023/06/04 11:27:49;;;;;;;1.17;0.90;;;23.40;32.70;;;;;;5112333;28;20035;-76
2023/06/04 11:30:16;;;;;;;1.48;0.82;;;23.20;33.90;;;;;;5113324;28;20028;-76
2023/06/04 11:32:41;;;;;;;2.72;1.20;;;23.30;36.10;;;;;;5115707;28;20030;-76
2023/06/04 11:35:07;;;;;;;1.42;1.00;;;23.40;35.10;;;;;;5116495;28;20076;-76
2023/06/04 11:37:34;;;;;;;3.42;1.35;;;23.40;33.00;;;;;;5117375;28;20028;-76
2023/06/04 11:40:05;;;;;;;1.88;1.13;;;23.40;35.20;;;;;;5117304;28;20024;-76
2023/06/04 11:42:31;;;;;;;1.63;0.90;;;23.50;34.70;;;;;;5116321;28;20084;-76
2023/06/04 11:44:57;;;;;;;1.52;0.93;;;23.60;35.10;;;;;;5116302;28;20027;-76
2023/06/04 11:47:26;;;;;;;3.63;1.30;;;23.70;34.80;;;;;;5116187;28;20035;-76
2023/06/04 11:49:56;;;;;;;1.38;0.80;;;23.80;33.50;;;;;;5117243;28;20024;-76
2023/06/04 11:52:22;;;;;;;2.72;1.10;;;23.80;33.70;;;;;;5099383;28;20032;-76
2023/06/04 11:54:48;;;;;;;3.35;1.10;;;23.70;32.40;;;;;;5117169;28;20028;-76
2023/06/04 11:57:13;;;;;;;1.70;1.13;;;23.40;34.10;;;;;;5115948;28;20020;-76
2023/06/04 11:59:39;;;;;;;2.13;1.02;;;23.50;34.00;;;;;;5116026;28;20028;-76
2023/06/04 12:02:07;;;;;;;1.27;1.08;;;23.60;34.50;;;;;;5116909;28;20028;-76
2023/06/04 12:04:32;;;;;;;2.00;1.00;;;23.80;34.60;;;;;;5116853;28;20020;-76
2023/06/04 12:07:01;;;;;;;1.92;1.13;;;24.00;34.40;;;;;;5116798;28;20053;-76
2023/06/04 12:09:35;;;;;;;1.58;0.95;;;24.10;33.70;;;;;;5115810;28;20093;-76
2023/06/04 12:12:02;;;;;;;2.28;1.00;;;24.10;34.30;;;;;;5115673;28;20031;-76
2023/06/04 12:14:29;;;;;;;1.55;0.90;;;24.30;33.80;;;;;;5116632;28;20027;-76
2023/06/04 12:17:05;;;;;;;1.35;0.90;;;24.30;33.40;;;;;;5115671;28;20012;-76
2023/06/04 12:19:31;;;;;;;2.70;1.02;;;24.20;31.80;;;;;;5116621;28;20025;-75
2023/06/04 12:22:05;;;;;;;1.35;0.90;;;23.90;32.20;;;;;;5115422;28;20082;-75
2023/06/04 12:24:32;;;;;;;1.65;1.00;;;24.00;34.10;;;;;;5116656;28;20024;-75
2023/06/04 12:27:09;;;;;;;1.63;0.93;;;24.10;34.60;;;;;;5116441;28;20028;-75
2023/06/04 12:29:35;;;;;;;1.63;1.15;;;24.30;33.90;;;;;;5116370;28;20107;-75
2023/06/04 12:32:08;;;;;;;1.90;0.90;;;24.50;33.80;;;;;;5116345;28;20020;-76
2023/06/04 12:34:40;;;;;;;1.77;1.30;;;24.70;33.60;;;;;;5115209;28;20046;-75
2023/06/04 12:37:07;;;;;;;;;;;24.80;32.90;;;;;;5115702;28;20040;-76
2023/06/04 12:39:36;;;;;;;1.77;0.80;;;24.80;32.50;;;;;;5116216;28;19957;-76
2023/06/04 12:42:08;;;;;;;1.60;0.80;;;24.80;33.30;;;;;;5115994;28;20060;-76
2023/06/04 12:44:39;;;;;;;2.45;1.30;;;24.90;33.30;;;;;;5115900;28;20028;-75
2023/06/04 12:47:05;;;;;;;1.17;0.90;;;24.80;32.70;;;;;;5116006;28;20035;-76
2023/06/04 12:49:30;;;;;;;1.40;1.00;;;24.80;32.60;;;;;;5115943;28;20050;-75